Time;durP1;ratioP1;P1;durP2;ratioP2;P2;SDS_P1;SDS_P2;PMS_P1;PMS_P2;Temp;Humidity;BMP_temperature;BMP_pressure;BME280_temperature;BME280_humidity;BME280_pressure;Samples;Min_cycle;Max_cycle;Signal;HPM_P1;HPM_P2
2021/04/07 00:00:37;;;;;;;32.50;16.33;;;;;;;0.82;54.52;98850.59;3558571;40;20401;-72
2021/04/07 00:03:04;;;;;;;37.38;15.20;;;;;;;0.82;54.69;98854.91;3556168;40;20172;-73
2021/04/07 00:05:33;;;;;;;34.28;14.52;;;;;;;0.80;54.76;98859.25;3555795;40;20324;-73
2021/04/07 00:08:00;;;;;;;39.42;15.75;;;;;;;0.80;54.76;98860.13;3556766;40;20053;-73
2021/04/07 00:10:28;;;;;;;33.97;14.63;;;;;;;0.78;54.85;98859.28;3557530;40;20050;-74
2021/04/07 00:12:56;;;;;;;27.45;12.25;;;;;;;0.77;54.95;98856.75;3557928;40;20045;-73
2021/04/07 00:15:24;;;;;;;21.70;11.70;;;;;;;0.75;55.24;98854.22;3557333;40;20053;-74
2021/04/07 00:17:51;;;;;;;28.50;12.10;;;;;;;0.74;55.03;98855.09;3557511;40;20242;-74
2021/04/07 00:20:19;;;;;;;26.70;11.43;;;;;;;0.74;55.32;98855.09;3556173;40;20120;-73
2021/04/07 00:22:46;;;;;;;23.83;11.50;;;;;;;0.75;55.22;98854.22;3556790;40;20061;-73
2021/04/07 00:25:13;;;;;;;28.13;12.02;;;;;;;0.74;55.46;98857.66;3557804;40;20439;-73
2021/04/07 00:27:40;;;;;;;29.60;11.73;;;;;;;0.73;55.57;98855.97;3558558;40;20041;-73
2021/04/07 00:30:10;;;;;;;24.85;12.73;;;;;;;0.73;55.78;98853.41;3556659;40;20127;-73
2021/04/07 00:32:36;;;;;;;22.75;11.35;;;;;;;0.74;55.65;98857.66;3556092;40;20113;-72
2021/04/07 00:35:03;;;;;;;22.58;10.90;;;;;;;0.74;55.75;98852.50;3558137;40;20045;-73
2021/04/07 00:37:29;;;;;;;23.90;10.82;;;;;;;0.73;55.77;98850.81;3558855;40;20047;-73
2021/04/07 00:39:55;;;;;;;22.58;11.35;;;;;;;0.70;56.00;98850.88;3557500;40;20070;-73
2021/04/07 00:42:22;;;;;;;29.90;12.77;;;;;;;0.69;55.90;98844.03;3558847;40;20077;-73
2021/04/07 00:44:49;;;;;;;29.02;13.30;;;;;;;0.69;56.13;98844.03;3558628;40;20074;-74
2021/04/07 00:47:18;;;;;;;37.83;17.25;;;;;;;0.66;56.37;98844.09;3556672;40;20407;-74
2021/04/07 00:49:44;;;;;;;39.65;16.58;;;;;;;0.67;56.32;98852.69;3556759;40;20399;-73
2021/04/07 00:52:11;;;;;;;35.15;16.63;;;;;;;0.66;56.35;98851.84;3557736;40;20077;-73
2021/04/07 00:54:38;;;;;;;42.03;15.23;;;;;;;0.64;56.42;98847.59;3558155;40;20078;-75
2021/04/07 00:57:05;;;;;;;39.88;15.55;;;;;;;0.63;56.38;98851.91;3547592;40;20153;-73
2021/04/07 00:59:31;;;;;;;35.42;15.40;;;;;;;0.61;56.47;98853.63;3548276;40;20059;-74
2021/04/07 01:01:58;;;;;;;30.88;14.63;;;;;;;0.62;56.60;98857.91;3554642;40;20160;-74
2021/04/07 01:04:26;;;;;;;27.45;14.30;;;;;;;0.59;56.88;98857.97;3553742;40;20074;-73
2021/04/07 01:06:53;;;;;;;24.90;13.23;;;;;;;0.58;56.78;98861.44;3554656;40;20141;-73
2021/04/07 01:09:19;;;;;;;26.80;13.35;;;;;;;0.56;57.00;98852.88;3557095;40;20073;-73
2021/04/07 01:11:46;;;;;;;28.23;13.75;;;;;;;0.55;56.95;98857.19;3556299;40;20133;-72
2021/04/07 01:14:12;;;;;;;35.25;13.93;;;;;;;0.53;56.98;98855.53;3557986;40;20053;-73
2021/04/07 01:16:39;;;;;;;36.20;15.63;;;;;;;0.51;57.15;98855.56;3558275;40;20129;-73
2021/04/07 01:19:08;;;;;;;29.42;14.88;;;;;;;0.51;57.16;98859.88;3556941;40;20058;-73
2021/04/07 01:21:36;;;;;;;35.22;15.07;;;;;;;0.49;57.29;98856.47;3558304;40;20042;-73
2021/04/07 01:24:04;;;;;;;26.30;13.52;;;;;;;0.47;57.38;98855.66;3558409;40;20332;-73
2021/04/07 01:26:30;;;;;;;30.00;13.40;;;;;;;0.46;57.59;98861.69;3559614;40;20058;-73
2021/04/07 01:28:57;;;;;;;26.55;13.35;;;;;;;0.44;57.53;98866.03;3559152;40;20112;-73
2021/04/07 01:31:24;;;;;;;23.23;13.30;;;;;;;0.43;57.70;98869.50;3556569;40;20045;-73
2021/04/07 01:33:50;;;;;;;32.00;12.02;;;;;;;0.41;57.75;98866.91;3558764;40;20054;-74
2021/04/07 01:36:16;;;;;;;27.80;13.35;;;;;;;0.41;57.79;98868.66;3556916;40;20034;-74
2021/04/07 01:38:42;;;;;;;30.70;12.75;;;;;;;0.39;57.86;98865.25;3558402;40;20050;-74
2021/04/07 01:41:12;;;;;;;26.98;13.30;;;;;;;0.37;58.12;98877.34;3557417;40;20030;-73
2021/04/07 01:43:39;;;;;;;27.27;14.70;;;;;;;0.36;58.04;98870.47;3559251;40;20038;-72
2021/04/07 01:46:05;;;;;;;32.47;13.90;;;;;;;0.35;58.20;98871.34;3559224;40;20347;-72
2021/04/07 01:48:32;;;;;;;26.95;13.20;;;;;;;0.35;58.21;98879.09;3556659;40;20042;-73
2021/04/07 01:50:59;;;;;;;26.23;14.80;;;;;;;0.32;58.44;98869.69;3559835;40;20053;-73
2021/04/07 01:53:26;;;;;;;32.90;13.90;;;;;;;0.33;58.39;98880.84;3559332;40;20058;-72
2021/04/07 01:55:52;;;;;;;28.15;12.77;;;;;;;0.31;58.28;98886.03;3559184;40;20435;-72
2021/04/07 01:58:20;;;;;;;25.55;12.93;;;;;;;0.29;58.50;98893.81;3558763;40;20045;-73
2021/04/07 02:00:46;;;;;;;26.85;14.27;;;;;;;0.30;58.58;98886.91;3559543;40;20060;-72
2021/04/07 02:03:12;;;;;;;31.95;13.95;;;;;;;0.29;58.43;98891.22;3560083;40;20062;-72
2021/04/07 02:05:40;;;;;;;31.33;14.77;;;;;;;0.27;58.68;98890.41;3557174;40;20419;-72
2021/04/07 02:08:06;;;;;;;30.40;14.35;;;;;;;0.25;58.71;98884.44;3558238;40;20041;-72
2021/04/07 02:10:33;;;;;;;25.63;12.63;;;;;;;0.25;58.69;98889.59;3558260;40;20338;-73
2021/04/07 02:13:01;;;;;;;33.53;15.57;;;;;;;0.25;58.72;98884.44;3559876;40;20407;-72
2021/04/07 02:15:28;;;;;;;31.58;14.93;;;;;;;0.24;58.81;98887.88;3559148;40;20311;-73
2021/04/07 02:17:54;;;;;;;26.65;13.65;;;;;;;0.24;58.93;98884.47;3559776;40;20042;-72
2021/04/07 02:20:22;;;;;;;32.08;15.07;;;;;;;0.22;58.86;98893.94;3559494;40;20057;-72
2021/04/07 02:22:49;;;;;;;39.33;15.98;;;;;;;0.21;59.03;98887.09;3559351;40;20042;-72
2021/04/07 02:25:16;;;;;;;29.67;15.13;;;;;;;0.19;58.98;98889.69;3558032;40;20078;-73
2021/04/07 02:27:43;;;;;;;32.90;15.82;;;;;;;0.21;59.19;98897.41;3559463;40;20145;-73
2021/04/07 02:30:12;;;;;;;33.50;14.70;;;;;;;0.18;58.99;98892.28;3558688;40;20038;-73
2021/04/07 02:32:39;;;;;;;26.42;14.13;;;;;;;0.15;59.43;98888.03;3559015;40;20338;-72
2021/04/07 02:35:07;;;;;;;33.00;14.13;;;;;;;0.11;59.30;98894.13;3558202;40;20074;-72
2021/04/07 02:37:33;;;;;;;34.40;14.85;;;;;;;0.09;59.37;98901.03;3559977;40;20073;-73
2021/04/07 02:40:00;;;;;;;30.45;14.85;;;;;;;0.06;59.66;98892.53;3557827;40;20030;-73
2021/04/07 02:42:26;;;;;;;24.25;12.90;;;;;;;0.04;59.66;98894.28;3557191;40;20351;-73
2021/04/07 02:44:53;;;;;;;28.17;14.18;;;;;;;0.02;59.71;98898.63;3555963;40;20050;-73
2021/04/07 02:47:19;;;;;;;26.05;12.63;;;;;;;0.00;59.73;98896.06;3557824;40;20042;-73
2021/04/07 02:49:47;;;;;;;25.23;12.30;;;;;;;-0.02;59.93;98895.22;3558664;40;20041;-74
2021/04/07 02:52:13;;;;;;;22.38;11.13;;;;;;;-0.03;59.89;98893.50;3558003;40;20064;-74
2021/04/07 02:54:39;;;;;;;28.98;11.95;;;;;;;-0.04;59.91;98899.53;3559302;40;20050;-73
2021/04/07 02:57:06;;;;;;;21.85;11.02;;;;;;;-0.05;60.28;98905.56;3557212;40;20062;-73
2021/04/07 02:59:33;;;;;;;26.17;11.82;;;;;;;-0.06;59.98;98903.88;3559152;40;20041;-73
2021/04/07 03:01:59;;;;;;;25.58;11.90;;;;;;;-0.06;60.15;98904.72;3559184;40;20033;-73
2021/04/07 03:04:26;;;;;;;21.38;12.35;;;;;;;-0.05;60.14;98910.72;3556846;40;20069;-75
2021/04/07 03:06:53;;;;;;;28.00;12.43;;;;;;;-0.05;60.27;98905.56;3557322;40;20062;-72
2021/04/07 03:09:19;;;;;;;28.67;12.73;;;;;;;-0.05;60.20;98918.47;3558120;40;20074;-72
2021/04/07 03:11:46;;;;;;;27.20;13.43;;;;;;;-0.04;60.45;98923.59;3556910;40;20064;-72
2021/04/07 03:14:12;;;;;;;30.63;12.32;;;;;;;-0.04;60.41;98920.16;3558873;40;20462;-72
2021/04/07 03:16:38;;;;;;;27.35;11.50;;;;;;;-0.05;60.62;98921.03;3558719;40;20030;-72
2021/04/07 03:19:05;;;;;;;27.48;12.18;;;;;;;-0.05;60.47;98926.19;3558627;40;20034;-73
2021/04/07 03:21:31;;;;;;;24.75;11.85;;;;;;;-0.03;60.62;98929.59;3559054;40;20070;-72
2021/04/07 03:24:00;;;;;;;19.52;10.85;;;;;;;-0.06;60.60;98934.78;3558845;40;20034;-73
2021/04/07 03:26:26;;;;;;;21.05;10.15;;;;;;;-0.05;60.69;98928.75;3558356;40;20039;-72
2021/04/07 03:28:52;;;;;;;26.95;12.43;;;;;;;-0.06;60.72;98929.63;3557722;40;20050;-73
2021/04/07 03:31:19;;;;;;;24.48;12.27;;;;;;;-0.08;60.83;98931.38;3557397;40;20041;-71
2021/04/07 03:33:45;;;;;;;22.88;10.50;;;;;;;-0.08;60.74;98936.53;3558137;40;20038;-71
2021/04/07 03:36:11;;;;;;;17.13;9.65;;;;;;;-0.08;60.97;98936.53;3557995;40;20431;-72
2021/04/07 03:38:38;;;;;;;21.70;10.98;;;;;;;-0.10;61.05;98933.16;3558428;40;20042;-73
2021/04/07 03:41:05;;;;;;;21.77;10.40;;;;;;;-0.13;60.99;98938.34;3557278;40;20417;-75
2021/04/07 03:43:31;;;;;;;19.60;11.38;;;;;;;-0.14;60.91;98946.97;3558977;40;20038;-74
2021/04/07 03:45:59;;;;;;;22.35;12.07;;;;;;;-0.15;61.29;98943.53;3558460;40;20041;-72
2021/04/07 03:48:28;;;;;;;22.63;11.77;;;;;;;-0.13;61.50;98935.78;3559035;40;20192;-74
2021/04/07 03:50:56;;;;;;;25.05;12.27;;;;;;;-0.13;61.08;98956.38;3556115;40;20149;-74
2021/04/07 03:53:23;;;;;;;24.77;10.90;;;;;;;-0.10;61.23;98946.03;3557421;40;20040;-74
2021/04/07 03:55:51;;;;;;;27.23;12.35;;;;;;;-0.03;61.26;98950.19;3557458;40;20417;-74
2021/04/07 03:58:19;;;;;;;23.23;11.80;;;;;;;0.15;60.93;98951.63;3558792;40;20100;-73
2021/04/07 04:00:45;;;;;;;24.20;12.38;;;;;;;0.34;60.58;98954.72;3558911;40;20062;-73
2021/04/07 04:03:12;;;;;;;24.15;13.05;;;;;;;0.39;60.38;98953.75;3558106;40;20038;-73
2021/04/07 04:05:39;;;;;;;23.58;11.65;;;;;;;0.38;60.67;98966.69;3557562;40;20038;-73
2021/04/07 04:08:06;;;;;;;25.45;13.00;;;;;;;0.48;60.76;98958.78;3558085;40;20062;-72
2021/04/07 04:10:33;;;;;;;20.52;10.35;;;;;;;0.60;60.39;98965.41;3558492;40;20115;-73
2021/04/07 04:13:00;;;;;;;22.00;11.00;;;;;;;0.73;60.29;98964.31;3554229;40;20050;-73
2021/04/07 04:15:27;;;;;;;24.40;11.52;;;;;;;0.88;60.14;98970.91;3554683;40;20379;-73
2021/04/07 04:17:53;;;;;;;26.77;11.50;;;;;;;1.13;59.50;98966.09;3557396;40;20327;-74
2021/04/07 04:20:21;;;;;;;21.50;11.38;;;;;;;1.32;59.35;98974.31;3556361;40;20038;-73
2021/04/07 04:22:47;;;;;;;25.17;11.07;;;;;;;1.56;59.13;98975.50;3557304;40;20092;-73
2021/04/07 04:25:15;;;;;;;21.55;11.00;;;;;;;1.72;59.05;98967.38;3558365;40;20061;-75
2021/04/07 04:27:42;;;;;;;23.60;10.45;;;;;;;1.87;58.78;98979.06;3557295;40;20053;-74
2021/04/07 04:30:11;;;;;;;19.85;11.13;;;;;;;2.03;58.58;98974.41;3558517;40;20070;-72
2021/04/07 04:32:38;;;;;;;21.80;11.45;;;;;;;2.13;58.61;98975.88;3557799;40;20169;-74
2021/04/07 04:35:06;;;;;;;19.80;10.15;;;;;;;2.18;58.53;98970.59;3556632;40;20123;-72
2021/04/07 04:37:32;;;;;;;20.80;10.20;;;;;;;2.25;58.54;98980.75;3554357;40;20078;-73
2021/04/07 04:39:59;;;;;;;17.90;10.23;;;;;;;2.28;58.65;98980.66;3557969;40;20062;-72
2021/04/07 04:42:25;;;;;;;22.92;10.82;;;;;;;2.47;58.56;98980.19;3558737;40;20360;-73
2021/04/07 04:44:52;;;;;;;21.10;11.48;;;;;;;2.67;57.97;98978.78;3561700;40;20046;-73
2021/04/07 04:47:18;;;;;;;22.23;9.57;;;;;;;2.82;57.55;98982.72;3556572;40;20034;-72
2021/04/07 04:49:45;;;;;;;18.95;10.98;;;;;;;2.92;57.65;98988.50;3554889;40;20070;-73
2021/04/07 04:52:11;;;;;;;20.88;11.60;;;;;;;3.03;57.55;98991.63;3554062;40;20452;-73
2021/04/07 04:54:38;;;;;;;20.23;11.43;;;;;;;3.09;57.58;98995.78;3557972;40;20315;-73
2021/04/07 04:57:04;;;;;;;19.50;10.48;;;;;;;3.13;57.34;98997.41;3552120;40;20069;-73
2021/04/07 04:59:31;;;;;;;19.50;11.30;;;;;;;3.13;57.45;98993.06;3553171;40;20066;-72
2021/04/07 05:01:58;;;;;;;21.98;11.60;;;;;;;3.19;57.23;98995.47;3553418;40;20044;-73
2021/04/07 05:04:24;;;;;;;19.70;10.60;;;;;;;3.32;57.21;98998.56;3555714;40;20038;-72
2021/04/07 05:06:53;;;;;;;33.33;14.20;;;;;;;3.38;57.19;98997.56;3552627;40;20067;-72
2021/04/07 05:09:19;;;;;;;25.42;13.57;;;;;;;3.46;57.09;99000.75;3552086;40;20034;-71
2021/04/07 05:11:46;;;;;;;23.15;12.68;;;;;;;3.49;56.98;99006.69;3554488;40;20115;-72
2021/04/07 05:14:12;;;;;;;26.70;14.25;;;;;;;3.56;56.90;99007.38;3554618;40;20153;-73
2021/04/07 05:16:38;;;;;;;23.48;11.98;;;;;;;3.57;56.73;99012.50;3557449;40;20418;-74
2021/04/07 05:19:04;;;;;;;22.00;11.52;;;;;;;3.59;56.77;99017.66;3558313;40;20045;-74
2021/04/07 05:21:31;;;;;;;20.00;13.13;;;;;;;3.60;56.75;99014.16;3557464;40;20042;-74
2021/04/07 05:23:58;;;;;;;20.05;12.07;;;;;;;3.71;56.30;99017.25;3556142;40;20149;-76
2021/04/07 05:26:24;;;;;;;19.80;11.50;;;;;;;3.70;56.40;99017.31;3555323;40;20112;-73
2021/04/07 05:28:50;;;;;;;22.30;12.65;;;;;;;3.57;56.61;99022.03;3547999;40;20277;-73
2021/04/07 05:31:17;;;;;;;20.48;11.18;;;;;;;3.55;56.57;99023.81;3554170;40;20042;-75
2021/04/07 05:33:46;;;;;;;19.40;11.88;;;;;;;3.47;56.81;99030.94;3556853;40;20491;-73
2021/04/07 05:36:14;;;;;;;18.55;11.82;;;;;;;3.47;56.82;99033.53;3557074;40;20034;-74
2021/04/07 05:38:40;;;;;;;21.20;11.40;;;;;;;3.47;56.57;99042.16;3556932;40;20387;-73
2021/04/07 05:41:08;;;;;;;17.63;11.15;;;;;;;3.43;56.65;99037.13;3551704;40;20042;-74
2021/04/07 05:43:35;;;;;;;17.63;11.35;;;;;;;3.41;56.56;99044.09;3557766;40;20367;-74
2021/04/07 05:46:02;;;;;;;19.08;11.65;;;;;;;3.46;56.39;99043.06;3557420;40;20335;-74
2021/04/07 05:48:28;;;;;;;23.45;11.50;;;;;;;3.60;56.01;99040.06;3558737;40;20046;-74
2021/04/07 05:50:56;;;;;;;20.10;11.38;;;;;;;3.64;55.82;99042.53;3556641;40;20038;-73
2021/04/07 05:53:23;;;;;;;19.38;11.00;;;;;;;3.73;55.74;99036.19;3550885;40;20039;-73
2021/04/07 05:55:51;;;;;;;17.65;10.60;;;;;;;3.83;55.56;99045.41;3552594;40;20045;-74
2021/04/07 05:58:19;;;;;;;18.23;10.38;;;;;;;3.95;55.20;99052.81;3557511;40;20403;-74
2021/04/07 06:00:45;;;;;;;24.27;13.93;;;;;;;3.96;54.93;99049.34;3556168;40;20151;-74
2021/04/07 06:03:12;;;;;;;18.85;11.38;;;;;;;3.90;55.23;99049.50;3557579;40;20038;-75
2021/04/07 06:05:40;;;;;;;15.35;10.25;;;;;;;3.80;55.43;99061.06;3558667;40;20409;-76
2021/04/07 06:08:07;;;;;;;17.60;10.90;;;;;;;3.76;55.48;99061.22;3559390;40;20441;-76
2021/04/07 06:10:36;;;;;;;18.63;11.43;;;;;;;3.74;55.35;99063.81;3558779;40;20100;-76
2021/04/07 06:13:04;;;;;;;21.70;12.55;;;;;;;3.74;55.43;99069.00;3559319;40;20045;-75
2021/04/07 06:15:32;;;;;;;22.48;11.38;;;;;;;3.83;55.28;99068.75;3558253;40;20078;-75
2021/04/07 06:18:00;;;;;;;27.52;13.60;;;;;;;3.94;54.99;99066.66;3556494;40;20038;-75
2021/04/07 06:20:29;;;;;;;24.83;13.52;;;;;;;4.13;54.35;99071.28;3557904;40;20034;-75
2021/04/07 06:22:55;;;;;;;25.48;14.13;;;;;;;4.28;54.30;99076.00;3553942;40;20038;-73
2021/04/07 06:25:29;;;;;;;25.90;11.43;;;;;;;4.41;53.93;99072.16;3555160;40;20119;-74
2021/04/07 06:27:57;;;;;;;18.95;11.18;;;;;;;4.26;54.24;99088.19;3552856;40;20083;-75
2021/04/07 06:30:40;;;;;;;22.00;10.18;;;;;;;4.19;54.48;99081.50;3554524;40;20115;-74
2021/04/07 06:33:08;;;;;;;20.48;9.55;;;;;;;4.22;54.22;99086.59;3551527;40;20045;-75
2021/04/07 06:35:35;;;;;;;20.98;10.18;;;;;;;4.33;54.04;99083.66;3552089;40;20046;-74
2021/04/07 06:38:01;;;;;;;22.77;10.98;;;;;;;4.34;53.72;99081.00;3556605;40;20383;-74
2021/04/07 06:40:28;;;;;;;22.30;11.55;;;;;;;4.40;53.71;99083.41;3554435;40;20048;-74
2021/04/07 06:42:54;;;;;;;21.80;10.82;;;;;;;4.43;53.69;99085.91;3552386;40;20057;-74
2021/04/07 06:45:21;;;;;;;21.77;10.57;;;;;;;4.54;53.55;99090.75;3553917;40;20041;-74
2021/04/07 06:47:49;;;;;;;24.90;12.30;;;;;;;4.63;53.25;99090.47;3553387;40;20139;-73
2021/04/07 06:50:17;;;;;;;23.67;11.52;;;;;;;5.08;52.47;99085.47;3552271;40;20048;-76
2021/04/07 06:52:44;;;;;;;19.65;9.55;;;;;;;5.29;51.93;99089.06;3558370;40;20128;-74
2021/04/07 06:55:11;;;;;;;19.05;9.27;;;;;;;5.37;51.67;99086.19;3557860;40;20042;-73
2021/04/07 06:57:38;;;;;;;20.35;10.27;;;;;;;5.44;51.76;99092.88;3559490;40;20122;-74
2021/04/07 07:00:07;;;;;;;16.05;8.85;;;;;;;5.40;51.57;99088.66;3559026;40;20061;-78
2021/04/07 07:02:35;;;;;;;17.92;10.07;;;;;;;5.54;51.20;99096.84;3557937;40;20037;-76
2021/04/07 07:05:02;;;;;;;14.30;8.90;;;;;;;5.54;50.95;99083.84;3557911;40;20030;-76
2021/04/07 07:07:30;;;;;;;15.88;9.38;;;;;;;5.56;51.10;99087.22;3556887;40;20398;-77
2021/04/07 07:09:57;;;;;;;11.73;7.85;;;;;;;5.63;50.89;99093.91;3557765;40;20038;-76
2021/04/07 07:12:25;;;;;;;16.95;8.60;;;;;;;5.73;50.58;99090.06;3558169;40;20045;-76
2021/04/07 07:14:51;;;;;;;18.05;8.88;;;;;;;5.81;50.58;99089.75;3556637;40;20045;-76
2021/04/07 07:17:27;;;;;;;16.58;8.93;;;;;;;5.91;50.67;99098.13;3558049;40;20078;-77
2021/04/07 07:19:54;;;;;;;15.85;8.75;;;;;;;6.11;49.84;99095.59;3557848;40;20157;-76
2021/04/07 07:22:22;;;;;;;18.83;8.35;;;;;;;6.24;49.80;99098.56;3558036;40;20038;-76
2021/04/07 07:24:55;;;;;;;20.77;8.40;;;;;;;6.29;49.45;99104.47;3559121;40;20119;-76
2021/04/07 07:27:35;;;;;;;13.18;7.05;;;;;;;6.20;49.55;99100.44;3559125;40;20049;-76
2021/04/07 07:30:01;;;;;;;14.48;8.40;;;;;;;6.34;49.17;99097.31;3557875;40;20038;-76
2021/04/07 07:32:35;;;;;;;17.17;8.85;;;;;;;6.80;48.43;99101.50;3559363;40;20115;-77
2021/04/07 07:35:07;;;;;;;11.88;7.55;;;;;;;6.93;47.93;99099.25;3557819;40;20502;-76
2021/04/07 07:37:33;;;;;;;;;;;;;;;6.85;48.53;99104.75;3558508;40;20069;-77
2021/04/07 07:40:00;;;;;;;15.48;7.82;;;;;;;6.60;49.10;99110.13;3557645;40;19941;-76
2021/04/07 07:42:28;;;;;;;14.20;7.22;;;;;;;6.49;48.99;99106.28;3559334;40;20042;-77
2021/04/07 07:44:54;;;;;;;16.63;9.00;;;;;;;6.36;49.32;99111.94;3558546;40;20128;-77
2021/04/07 07:47:26;;;;;;;12.93;7.63;;;;;;;6.31;49.22;99115.66;3558774;40;20294;-77
2021/04/07 07:49:54;;;;;;;13.77;8.60;;;;;;;6.25;49.31;99119.34;3558870;40;20276;-76
2021/04/07 07:52:29;;;;;;;17.60;10.35;;;;;;;6.31;49.26;99118.25;3558896;40;20074;-77
2021/04/07 07:54:57;;;;;;;17.92;10.07;;;;;;;6.26;49.05;99115.84;3558884;40;20045;-76
2021/04/07 07:57:24;;;;;;;21.83;11.02;;;;;;;6.24;49.40;99114.19;3558009;40;20066;-77
2021/04/07 07:59:56;;;;;;;11.02;8.10;;;;;;;6.05;49.65;99116.66;3555247;40;20129;-77
2021/04/07 08:02:25;;;;;;;12.57;8.40;;;;;;;6.09;49.52;99118.22;3557135;40;20291;-75
2021/04/07 08:04:51;;;;;;;17.15;9.15;;;;;;;6.42;48.72;99126.47;3557926;40;20165;-76
2021/04/07 08:07:18;;;;;;;16.95;9.68;;;;;;;7.02;47.73;99117.09;3558525;40;20041;-76
2021/04/07 08:09:44;;;;;;;13.40;8.30;;;;;;;7.50;46.53;99127.22;3557801;40;20476;-76
2021/04/07 08:12:11;;;;;;;12.95;8.45;;;;;;;8.75;44.70;99118.81;3558015;40;20419;-77
2021/04/07 08:14:40;;;;;;;13.10;8.38;;;;;;;10.78;40.50;99125.53;3558312;40;20131;-77
2021/04/07 08:17:07;;;;;;;15.32;7.78;;;;;;;11.75;38.85;99129.41;3558084;40;20323;-77
2021/04/07 08:19:36;;;;;;;14.43;8.65;;;;;;;9.97;42.00;99130.00;3558353;40;20481;-76
2021/04/07 08:22:04;;;;;;;12.85;9.02;;;;;;;8.89;44.55;99135.56;3558603;40;20081;-76
2021/04/07 08:24:32;;;;;;;13.43;8.52;;;;;;;8.40;45.51;99137.94;3558303;40;20090;-76
2021/04/07 08:27:08;;;;;;;18.10;9.55;;;;;;;7.84;46.37;99146.56;3556696;40;20045;-77
2021/04/07 08:29:37;;;;;;;14.65;8.77;;;;;;;7.65;46.57;99144.78;3558057;40;20030;-76
2021/04/07 08:32:05;;;;;;;13.73;9.38;;;;;;;7.64;46.58;99147.44;3559025;40;20423;-77
2021/04/07 08:34:33;;;;;;;16.40;10.30;;;;;;;7.38;46.70;99150.34;3557473;40;20051;-77
2021/04/07 08:36:59;;;;;;;15.48;9.07;;;;;;;7.23;47.36;99146.63;3557335;40;20060;-77
2021/04/07 08:39:25;;;;;;;15.43;8.75;;;;;;;7.23;46.92;99146.63;3558402;40;20115;-77
2021/04/07 08:41:52;;;;;;;16.52;8.98;;;;;;;7.28;46.71;99147.25;3557579;40;20085;-78
2021/04/07 08:44:19;;;;;;;14.02;8.40;;;;;;;7.50;46.12;99147.22;3557821;40;20318;-76
2021/04/07 08:46:49;;;;;;;12.93;8.07;;;;;;;10.66;41.07;99140.19;3555091;40;20041;-76
2021/04/07 08:49:34;;;;;;;12.07;7.85;;;;;;;15.76;32.99;99136.81;3558327;40;20045;-76
2021/04/07 08:52:12;;;;;;;11.55;7.88;;;;;;;19.79;27.68;99139.44;3557718;40;20277;-76
2021/04/07 08:54:43;;;;;;;14.15;7.40;;;;;;;19.82;27.85;99138.31;3556580;40;20033;-76
2021/04/07 08:57:24;;;;;;;11.32;7.53;;;;;;;18.74;29.14;99134.00;3557913;40;20042;-78
2021/04/07 08:59:53;;;;;;;9.35;7.40;;;;;;;16.11;32.42;99142.00;3557444;40;20062;-76
2021/04/07 09:02:19;;;;;;;9.50;5.60;;;;;;;15.18;33.75;99140.34;3558639;40;20038;-76
2021/04/07 09:05:00;;;;;;;10.35;6.75;;;;;;;13.81;35.41;99145.81;3558046;40;20045;-75
2021/04/07 09:07:40;;;;;;;10.25;5.97;;;;;;;13.10;36.30;99149.69;3557684;40;20034;-78
2021/04/07 09:10:16;;;;;;;9.80;5.78;;;;;;;12.86;36.29;99151.31;3557727;40;20502;-76
2021/04/07 09:12:43;;;;;;;9.55;6.57;;;;;;;12.79;36.25;99155.28;3553361;40;20038;-76
2021/04/07 09:15:14;;;;;;;8.88;6.10;;;;;;;15.45;32.41;99143.59;3554895;40;20034;-76
2021/04/07 09:17:45;;;;;;;11.15;5.70;;;;;;;18.11;28.42;99138.66;3554278;40;20050;-74
2021/04/07 09:20:32;;;;;;;10.52;5.82;;;;;;;15.65;31.74;99139.44;3554981;40;20066;-75
2021/04/07 09:23:06;;;;;;;10.90;5.35;;;;;;;14.45;33.36;99140.47;3553958;40;20078;-75
2021/04/07 09:25:33;;;;;;;8.90;5.57;;;;;;;15.75;31.74;99127.19;3553670;40;20058;-76
2021/04/07 09:28:06;;;;;;;8.50;5.60;;;;;;;18.07;27.67;99131.13;3556624;40;20128;-79
2021/04/07 09:30:47;;;;;;;7.40;5.60;;;;;;;16.19;29.94;99133.44;3557183;40;20404;-79
2021/04/07 09:33:18;;;;;;;10.90;5.85;;;;;;;14.88;31.48;99132.94;3556922;40;20084;-78
2021/04/07 09:35:57;;;;;;;10.57;6.65;;;;;;;14.52;32.30;99133.81;3557054;40;20132;-79
2021/04/07 09:38:24;;;;;;;8.77;5.85;;;;;;;15.20;30.57;99138.44;3558710;40;20439;-80
2021/04/07 09:41:02;;;;;;;9.02;6.45;;;;;;;14.23;31.81;99139.34;3558079;40;20410;-75
2021/04/07 09:43:30;;;;;;;11.52;7.95;;;;;;;14.95;31.02;99131.50;3559606;40;20295;-79
2021/04/07 09:46:02;;;;;;;13.35;8.00;;;;;;;14.61;31.14;99131.38;3555486;40;20038;-79
2021/04/07 09:48:52;;;;;;;9.45;6.65;;;;;;;14.14;32.25;99134.72;3554229;40;20104;-80
2021/04/07 09:51:23;;;;;;;12.32;8.05;;;;;;;16.51;28.24;99135.34;3561422;40;20043;-79
2021/04/07 09:53:50;;;;;;;7.50;4.95;;;;;;;16.17;28.79;99138.88;3554773;40;20072;-78
2021/04/07 09:56:16;;;;;;;7.57;4.50;;;;;;;14.95;30.46;99135.00;3554531;40;20035;-78
2021/04/07 09:58:44;;;;;;;16.50;7.50;;;;;;;14.65;30.97;99124.06;3552557;40;20037;-79
2021/04/07 10:01:13;;;;;;;13.93;6.38;;;;;;;14.78;30.90;99129.25;3554916;40;20046;-79
2021/04/07 10:03:47;;;;;;;7.72;5.03;;;;;;;15.21;30.55;99127.78;3554387;40;20034;-79
2021/04/07 10:06:25;;;;;;;8.63;4.82;;;;;;;15.25;30.24;99131.88;3556966;40;20037;-79
2021/04/07 10:09:03;;;;;;;10.52;5.63;;;;;;;14.21;31.45;99135.13;3548737;40;20076;-78
2021/04/07 10:11:29;;;;;;;9.77;6.68;;;;;;;13.44;32.44;99139.59;3556204;40;20074;-79
2021/04/07 10:13:59;;;;;;;11.80;6.50;;;;;;;12.80;33.29;99141.19;3559797;40;20078;-79
2021/04/07 10:16:26;;;;;;;9.15;5.95;;;;;;;12.33;34.15;99147.72;3559959;40;20042;-80
2021/04/07 10:18:52;;;;;;;28.52;13.95;;;;;;;11.84;35.05;99166.47;3557138;40;20078;-79
2021/04/07 10:21:20;;;;;;;15.68;8.90;;;;;;;10.63;38.01;99163.97;3558610;40;20120;-79
2021/04/07 10:23:48;;;;;;;32.70;17.38;;;;;;;10.19;39.36;99174.19;3549212;40;20065;-77
2021/04/07 10:26:16;;;;;;;38.85;23.45;;;;;;;9.72;40.33;99178.41;3551267;40;20038;-77
2021/04/07 10:28:53;;;;;;;28.33;16.88;;;;;;;9.23;41.59;99195.75;3550328;40;20030;-78
2021/04/07 10:31:29;;;;;;;26.80;15.25;;;;;;;8.05;43.68;99195.19;3554682;40;20069;-78
2021/04/07 10:34:07;;;;;;;19.52;12.32;;;;;;;7.75;44.70;99191.34;3554167;40;20058;-75
2021/04/07 10:36:36;;;;;;;18.10;10.73;;;;;;;8.16;44.46;99198.19;3556228;40;20707;-78
2021/04/07 10:39:13;;;;;;;16.58;9.90;;;;;;;8.71;44.13;99192.19;3554429;40;20038;-78
2021/04/07 10:41:39;;;;;;;15.60;10.52;;;;;;;8.83;43.89;99200.28;3556368;40;20038;-77
2021/04/07 10:44:07;;;;;;;16.60;9.65;;;;;;;8.74;44.49;99194.66;3554367;40;20037;-77
2021/04/07 10:46:33;;;;;;;12.23;8.30;;;;;;;8.79;44.41;99198.75;3554915;40;20351;-78
2021/04/07 10:49:02;;;;;;;15.15;9.50;;;;;;;8.86;44.35;99199.28;3555921;40;20035;-72
2021/04/07 10:51:30;;;;;;;16.30;8.23;;;;;;;8.68;44.75;99195.78;3556258;40;20281;-72
2021/04/07 10:53:58;;;;;;;14.77;8.77;;;;;;;8.88;44.74;99197.47;3552812;40;20041;-72
2021/04/07 10:56:28;;;;;;;16.02;9.55;;;;;;;9.75;43.59;99186.09;3555000;40;20120;-71
2021/04/07 10:58:56;;;;;;;19.05;9.48;;;;;;;10.54;42.23;99191.50;3552926;40;20045;-73
2021/04/07 11:01:30;;;;;;;11.15;6.22;;;;;;;11.13;40.97;99182.06;3553524;40;20169;-72
2021/04/07 11:03:56;;;;;;;17.45;8.30;;;;;;;11.29;40.52;99185.50;3553574;40;20034;-71
2021/04/07 11:06:23;;;;;;;11.18;6.25;;;;;;;11.32;40.74;99187.09;3553205;40;20077;-70
2021/04/07 11:08:51;;;;;;;13.25;7.45;;;;;;;11.32;40.62;99181.84;3553635;40;20042;-72
2021/04/07 11:11:24;;;;;;;15.73;8.13;;;;;;;11.37;40.91;99171.91;3553157;40;20030;-72
2021/04/07 11:13:53;;;;;;;14.45;8.43;;;;;;;11.51;40.39;99181.63;3554392;40;20034;-75
2021/04/07 11:16:19;;;;;;;11.27;6.63;;;;;;;11.76;40.08;99187.09;3554881;40;20065;-71
2021/04/07 11:18:49;;;;;;;12.40;8.43;;;;;;;11.69;40.20;99177.91;3553552;40;20074;-71
2021/04/07 11:21:23;;;;;;;11.30;7.43;;;;;;;11.27;40.50;99171.63;3556710;40;20034;-72
2021/04/07 11:23:49;;;;;;;14.05;7.35;;;;;;;10.93;40.92;99177.09;3558557;40;20048;-72
2021/04/07 11:26:16;;;;;;;14.27;7.53;;;;;;;10.95;40.84;99170.84;3557361;40;20030;-71
2021/04/07 11:28:42;;;;;;;11.85;6.25;;;;;;;10.63;41.34;99182.31;3554527;40;20480;-72
2021/04/07 11:31:11;;;;;;;10.68;6.82;;;;;;;9.94;42.15;99175.50;3555542;40;20129;-71